Latest Weather Observations for Hartz Mountains

IDT60801

Issued at 11:01 pm EST Monday 3 August 2015 (issued every 30 minutes, with the page automatically refreshed every 10 minutes)

About weather observations | Map of weather stations | Latest weather observations for TAS | Other Formats
Station Details ID: 094191 Name: HARTZ MOUNTAIN (KEOGHS PIMPLE) Lat: -43.20 Lon: 146.77 Height: 831.0 m
Data from the previous 72 hours. | See also: Recent months at Hartz Mountains
Date/Time
EST
Temp
°C
App
Temp
°C
Dew
Point
Rel
Hum
%
Delta-T
°C
Wind Press
QNH
hPa
Press
MSL
hPa
Rain
since 9 am
mm
Dir
 
Spd
km/h
Gust
km/h
Spd
kts
Gust
kts
03/11:00pm -2.4 -8.5 -2.5 99 -0.1 WNW 20 39 11 21 - - 0.0
03/10:30pm -2.5 -8.6 -2.6 99 -0.1 W 20 39 11 21 - - 0.0
03/10:00pm -2.5 -8.6 -2.6 99 -0.1 W 20 32 11 17 - - 0.0
03/09:30pm -2.4 -9.7 -2.5 99 -0.1 W 26 37 14 20 - - 0.0
03/09:00pm -2.2 -8.3 -2.3 99 -0.1 W 20 33 11 18 - - 0.0
03/08:53pm -2.2 -9.8 -2.3 99 -0.1 W 28 46 15 25 - - 0.0
03/08:30pm -2.2 -11.1 -2.3 99 -0.1 WSW 35 48 19 26 - - 0.0
03/08:00pm -2.2 -11.5 -2.3 99 -0.1 WSW 37 50 20 27 - - 0.0
03/07:30pm -1.8 -10.7 -1.8 100 0.0 WSW 35 52 19 28 - - 0.0
03/07:24pm -1.7 -10.0 -1.7 100 0.0 WSW 32 52 17 28 - - 0.0
03/07:00pm -1.9 -9.1 -2.0 99 -0.1 WSW 26 37 14 20 - - 0.0
03/06:30pm -1.6 -8.7 -1.6 100 0.0 WSW 26 37 14 20 - - 0.0
03/06:00pm -1.6 -8.0 -1.7 99 0.0 SW 22 41 12 22 - - 0.0
03/05:41pm -1.5 -10.0 -1.5 100 0.0 SW 33 50 18 27 - - 0.0
03/05:31pm -1.4 -10.6 -1.4 100 0.0 SW 37 59 20 32 - - 0.0
03/05:30pm -1.4 -10.6 -1.4 100 0.0 WSW 37 52 20 28 - - 0.0
03/05:00pm -1.6 -11.6 -1.7 99 0.0 WSW 41 76 22 41 - - 0.0
03/04:57pm -1.6 -11.6 -1.7 99 0.0 WSW 41 76 22 41 - - 0.0
03/04:53pm -1.6 -12.2 -1.7 99 0.0 SW 44 74 24 40 - - 0.0
03/04:51pm -1.6 -12.9 -1.7 99 0.0 SW 48 74 26 40 - - 0.0
03/04:37pm -1.8 -13.5 -1.9 99 0.0 SW 50 78 27 42 - - 0.0
03/04:36pm -1.7 -13.1 -1.8 99 0.0 SW 48 78 26 42 - - 0.0
03/04:31pm -1.5 -12.4 -1.6 99 0.0 SW 46 78 25 42 - - 0.0
03/04:30pm -1.5 -12.4 -1.6 99 0.0 SW 46 70 25 38 - - 0.0
03/04:17pm -1.3 -12.2 -1.3 100 0.0 WSW 46 80 25 43 - - 0.0
03/04:15pm -1.3 -11.3 -1.3 100 0.0 WSW 41 80 22 43 - - 0.0
03/04:00pm -1.3 -11.3 -1.4 99 0.0 SW 41 70 22 38 - - 0.0
03/03:30pm -1.2 -10.8 -1.2 100 0.0 SW 39 57 21 31 - - 0.0
03/03:00pm -1.3 -13.0 -1.3 100 0.0 SW 50 89 27 48 - - 0.0
03/02:41pm -1.5 -13.2 -1.6 99 0.0 WSW 50 93 27 50 - - 0.0
03/02:30pm -1.4 -11.4 -1.4 100 0.0 WSW 41 72 22 39 - - 0.0
03/02:00pm -1.6 -11.6 -1.6 100 0.0 WSW 41 76 22 41 - - 0.0
03/01:48pm -1.4 -11.9 -1.4 100 0.0 SW 44 74 24 40 - - 0.0
03/01:32pm -1.5 -10.0 -1.6 99 0.0 SW 33 63 18 34 - - 0.0
03/01:30pm -1.5 -10.3 -1.5 100 0.0 SW 35 63 19 34 - - 0.0
03/01:28pm -1.4 -9.8 -1.4 100 0.0 SW 33 63 18 34 - - 0.0
03/01:24pm -1.4 -9.7 -1.4 100 0.0 SW 32 57 17 31 - - 0.0
03/01:23pm -1.5 -10.0 -1.5 100 0.0 SW 33 59 18 32 - - 0.0
03/01:09pm -1.8 -11.8 -1.8 100 0.0 WSW 41 67 22 36 - - 0.0
03/01:00pm -1.9 -11.6 -1.9 100 0.0 WSW 39 56 21 30 - - 0.0
03/12:30pm -1.8 -11.4 -1.8 100 0.0 WSW 39 57 21 31 - - 0.0
03/12:22pm -1.9 -11.6 -2.0 99 -0.1 WSW 39 57 21 31 - - 0.0
03/12:00pm -2.0 -10.4 -2.1 99 -0.1 WSW 32 44 17 24 - - 0.0
03/11:31am -2.1 -14.6 -2.2 99 -0.1 WSW 54 74 29 40 - - 0.0
03/11:30am -2.2 -15.3 -2.3 99 -0.1 SW 57 74 31 40 - - 0.0
03/11:29am -2.3 -15.4 -2.4 99 -0.1 SW 57 76 31 41 - - 0.0
03/11:21am -2.5 -13.0 -2.6 99 -0.1 WSW 43 76 23 41 - - 0.0
03/11:20am -2.5 -12.2 -2.6 99 -0.1 WSW 39 76 21 41 - - 0.0
03/11:06am -2.7 -12.5 -2.8 99 -0.1 WSW 39 57 21 31 - - 0.0
03/11:00am -2.8 -13.3 -2.9 99 -0.1 WSW 43 57 23 31 - - 0.0
03/10:38am -2.6 -11.6 -2.7 99 -0.1 WSW 35 54 19 29 - - 0.0
03/10:30am -2.7 -12.1 -2.8 99 -0.1 WSW 37 52 20 28 - - 0.0
03/10:07am -2.9 -10.6 -3.0 99 -0.1 W 28 48 15 26 - - 0.0
03/10:00am -2.8 -9.0 -2.9 99 -0.1 W 20 33 11 18 - - 0.0
03/09:41am -3.0 -9.2 -3.1 99 -0.1 WSW 20 50 11 27 - - 0.0
03/09:30am -2.8 -9.0 -2.9 99 -0.1 W 20 37 11 20 - - 0.0
03/09:07am -3.3 -11.1 -3.4 99 -0.1 WSW 28 46 15 25 - - 0.0
03/09:00am -3.3 -9.9 -3.4 99 -0.1 W 22 33 12 18 - - 2.8
03/08:38am -3.5 -11.3 -3.8 98 -0.1 WSW 28 52 15 28 - - 2.8
03/08:30am -3.5 -11.7 -3.8 98 -0.1 WSW 30 43 16 23 - - 2.8
03/08:01am -3.4 -11.2 -3.7 98 0.0 W 28 56 15 30 - - 2.8
03/08:00am -3.4 -10.8 -3.5 99 -0.1 W 26 56 14 30 - - 2.8
03/07:30am -3.8 -11.6 -3.9 99 -0.1 W 28 50 15 27 - - 2.8
03/07:22am -3.9 -11.7 -4.0 99 -0.1 W 28 48 15 26 - - 2.8
03/07:00am -4.2 -10.9 -4.5 98 -0.1 W 22 44 12 24 - - 2.8
03/06:39am -4.2 -12.1 -4.5 98 -0.1 WSW 28 46 15 25 - - 2.8
03/06:30am -4.1 -11.6 -4.4 98 -0.1 W 26 44 14 24 - - 2.8
03/06:00am -4.0 -12.2 -4.1 99 -0.1 WSW 30 50 16 27 - - 2.8
03/05:30am -4.1 -11.9 -4.2 99 -0.1 WNW 28 50 15 27 - - 2.8
03/05:00am -4.1 -12.0 -4.4 98 -0.1 W 28 52 15 28 - - 2.8
03/04:42am -4.1 -12.0 -4.4 98 -0.1 WNW 28 46 15 25 - - 2.8
03/04:30am -4.2 -12.8 -4.5 98 -0.1 W 32 54 17 29 - - 2.8
03/04:00am -3.9 -12.5 -4.2 98 -0.1 WSW 32 56 17 30 - - 2.8
03/03:30am -3.9 -14.6 -4.0 99 -0.1 WSW 43 61 23 33 - - 2.8
03/03:00am -3.4 -14.2 -3.5 99 -0.1 WSW 44 69 24 37 - - 2.8
03/02:51am -3.4 -14.0 -3.5 99 -0.1 W 43 69 23 37 - - 2.8
03/02:50am -3.4 -13.6 -3.5 99 -0.1 W 41 67 22 36 - - 2.8
03/02:30am -3.2 -10.9 -3.3 99 -0.1 WNW 28 56 15 30 - - 2.8
03/02:09am -3.2 -10.9 -3.3 99 -0.1 WNW 28 50 15 27 - - 2.8
03/02:00am -3.3 -9.9 -3.4 99 -0.1 WNW 22 37 12 20 - - 2.8
03/01:30am -3.0 -10.0 -3.1 99 -0.1 W 24 46 13 25 - - 2.8
03/01:06am -2.7 -10.4 -2.8 99 -0.1 W 28 46 15 25 - - 2.8
03/01:00am -2.7 -8.9 -2.8 99 -0.1 W 20 46 11 25 - - 2.8
03/12:36am -2.7 -10.4 -2.8 99 -0.1 W 28 56 15 30 - - 2.8
03/12:30am -2.4 -9.7 -2.5 99 -0.1 WNW 26 48 14 26 - - 2.8
03/12:13am -2.4 -10.0 -2.5 99 -0.1 WNW 28 48 15 26 - - 2.8
03/12:00am -2.4 -9.3 -2.5 99 -0.1 NW 24 44 13 24 - - 2.8
 
Date/Time
EST
Temp
°C
App
Temp
°C
Dew
Point
Rel
Hum
%
Delta-T
°C
Wind Press
QNH
hPa
Press
MSL
hPa
Rain
since 9 am
mm
Dir
 
Spd
km/h
Gust
km/h
Spd
kts
Gust
kts
02/11:30pm -2.4 -10.0 -2.5 99 -0.1 WNW 28 52 15 28 - - 2.8
02/11:00pm -2.3 -10.9 -2.4 99 -0.1 WNW 33 61 18 33 - - 2.8
02/10:30pm -2.5 -10.5 -2.6 99 -0.1 WNW 30 57 16 31 - - 2.8
02/10:00pm -2.4 -12.1 -2.5 99 -0.1 WNW 39 59 21 32 - - 2.8
02/09:30pm -2.2 -13.6 -2.3 99 -0.1 WNW 48 74 26 40 - - 2.8
02/09:22pm -2.0 -11.7 -2.0 100 0.0 WNW 39 69 21 37 - - 2.8
02/09:02pm -2.0 -9.6 -2.0 100 0.0 NW 28 48 15 26 - - 2.8
02/09:00pm -2.0 -8.8 -2.0 100 0.0 NW 24 48 13 26 - - 2.8
02/08:55pm -2.0 -9.6 -2.0 100 0.0 NW 28 48 15 26 - - 2.8
02/08:30pm -1.8 -8.6 -1.8 100 0.0 NW 24 39 13 21 - - 2.8
02/08:04pm -1.8 -9.4 -1.8 100 0.0 NW 28 48 15 26 - - 2.8
02/08:00pm -1.8 -9.0 -1.8 100 0.0 NW 26 39 14 21 - - 2.8
02/07:30pm -1.8 -9.7 -1.8 100 0.0 NW 30 57 16 31 - - 2.8
02/07:25pm -1.8 -9.4 -1.8 100 0.0 NW 28 52 15 28 - - 2.8
02/07:00pm -1.8 -8.6 -1.8 100 0.0 NW 24 37 13 20 - - 2.8
02/06:30pm -1.8 -10.3 -1.8 100 0.0 WNW 33 54 18 29 - - 2.8
02/06:00pm -1.9 -12.3 -1.9 100 0.0 WNW 43 72 23 39 - - 2.8
02/05:30pm -1.9 -10.8 -1.9 100 0.0 WNW 35 56 19 30 - - 2.8
02/05:02pm -2.0 -11.3 -2.0 100 0.0 WNW 37 70 20 38 - - 2.8
02/05:00pm -2.0 -12.0 -2.0 100 0.0 WNW 41 70 22 38 - - 2.8
02/04:55pm -2.0 -12.4 -2.1 99 -0.1 WNW 43 70 23 38 - - 2.8
02/04:47pm -1.9 -9.5 -1.9 100 0.0 NW 28 46 15 25 - - 2.8
02/04:30pm -1.9 -8.3 -2.0 99 -0.1 NW 22 35 12 19 - - 2.8
02/04:01pm -1.8 -9.4 -1.9 99 0.0 NW 28 54 15 29 - - 2.8
02/04:00pm -1.8 -9.0 -1.9 99 0.0 NW 26 54 14 29 - - 2.8
02/03:30pm -1.7 -8.5 -1.8 99 0.0 WNW 24 56 13 30 - - 2.8
02/03:25pm -1.6 -5.0 -1.7 99 0.0 WNW 6 52 3 28 - - 2.8
02/03:00pm -1.5 -7.9 -1.5 100 0.0 W 22 54 12 29 - - 2.8
02/02:43pm -1.8 -7.3 -1.9 99 0.0 WNW 17 46 9 25 - - 2.8
02/02:30pm -1.6 -7.6 -1.6 100 0.0 W 20 46 11 25 - - 2.8
02/02:26pm -1.5 -8.3 -1.5 100 0.0 W 24 50 13 27 - - 2.8
02/02:00pm -1.5 -10.7 -1.5 100 0.0 WNW 37 65 20 35 - - 2.6
02/01:30pm -1.5 -10.0 -1.5 100 0.0 W 33 69 18 37 - - 2.6
02/01:00pm -1.0 -9.4 -1.0 100 0.0 W 33 57 18 31 - - 2.6
02/12:30pm -0.7 -10.2 -0.7 100 0.0 W 39 61 21 33 - - 2.6
02/12:19pm -0.5 -9.2 -0.5 100 0.0 W 35 59 19 32 - - 2.6
02/12:00pm -0.3 -7.6 -0.3 100 0.0 W 28 43 15 23 - - 2.4
02/11:31am 0.0 -8.1 -0.1 99 0.0 WNW 32 54 17 29 - - 2.2
02/11:30am 0.0 -8.1 -0.1 99 0.0 WNW 32 46 17 25 - - 2.2
02/11:05am 0.6 -7.6 0.5 99 0.0 NW 33 59 18 32 - - 2.2
02/11:00am 0.8 -7.2 0.7 99 0.0 NW 32 43 17 23 - - 2.0
02/10:30am 1.1 -8.2 0.8 98 0.1 NW 39 63 21 34 - - 0.8
02/10:00am 1.6 -9.0 1.0 96 0.2 NW 46 76 25 41 - - 0.2
02/09:30am 1.6 -9.0 0.7 94 0.4 NW 46 69 25 37 - - 0.0
02/09:00am 1.7 -8.5 1.0 95 0.3 NW 44 74 24 40 - - 10.6
02/08:30am 1.6 -8.0 0.9 95 0.3 NW 41 67 22 36 - - 10.6
02/08:00am 1.2 -10.2 0.5 95 0.3 NW 50 74 27 40 - - 10.6
02/07:32am 1.1 -9.5 0.7 97 0.2 WNW 46 83 25 45 - - 10.6
02/07:30am 0.9 -9.2 0.5 97 0.2 NW 43 63 23 34 - - 10.6
02/07:00am 0.9 -9.2 0.3 96 0.2 NW 43 76 23 41 - - 10.6
02/06:30am 0.9 -9.2 0.3 96 0.2 NW 43 74 23 40 - - 10.6
02/06:03am 1.0 -9.3 0.6 97 0.2 WNW 44 74 24 40 - - 10.6
02/06:02am 0.9 -9.4 0.5 97 0.2 WNW 44 74 24 40 - - 10.6
02/06:00am 0.8 -8.9 0.5 98 0.1 WNW 41 72 22 39 - - 10.6
02/05:30am 0.8 -7.4 0.5 98 0.1 NW 33 52 18 28 - - 10.4
02/05:03am 0.8 -8.9 0.4 97 0.2 WNW 41 78 22 42 - - 10.0
02/05:00am 0.8 -8.2 0.4 97 0.2 WNW 37 57 20 31 - - 10.0
02/04:30am 0.7 -10.4 0.3 97 0.2 WNW 48 83 26 45 - - 10.0
02/04:00am 0.6 -9.5 0.3 98 0.1 WNW 43 61 23 33 - - 10.0
02/03:30am 0.6 -10.5 0.2 97 0.2 WNW 48 69 26 37 - - 10.0
02/03:00am 0.4 -9.3 0.3 99 0.0 WNW 41 65 22 35 - - 10.0
02/02:30am 0.2 -8.0 0.2 100 0.0 WNW 33 54 18 29 - - 10.0
02/02:00am 0.2 -9.9 0.1 99 0.0 WNW 43 65 23 35 - - 10.0
02/01:43am 0.1 -9.7 0.1 100 0.0 WNW 41 63 22 34 - - 10.0
02/01:30am 0.2 -9.5 0.2 100 0.0 WNW 41 57 22 31 - - 10.0
02/01:00am 0.1 -9.3 0.0 99 0.0 WNW 39 69 21 37 - - 10.0
02/12:57am 0.2 -9.6 0.1 99 0.0 WNW 41 69 22 37 - - 10.0
02/12:51am 0.1 -10.3 -0.2 98 0.1 WNW 44 67 24 36 - - 10.0
02/12:33am 0.1 -12.6 -0.2 98 0.1 WNW 56 78 30 42 - - 10.0
02/12:30am 0.1 -11.4 -0.2 98 0.1 WNW 50 78 27 42 - - 10.0
02/12:03am 0.0 -9.8 -0.3 98 0.1 WNW 41 65 22 35 - - 10.0
02/12:00am 0.0 -9.8 -0.3 98 0.1 WNW 41 56 22 30 - - 10.0
 
Date/Time
EST
Temp
°C
App
Temp
°C
Dew
Point
Rel
Hum
%
Delta-T
°C
Wind Press
QNH
hPa
Press
MSL
hPa
Rain
since 9 am
mm
Dir
 
Spd
km/h
Gust
km/h
Spd
kts
Gust
kts
01/11:30pm 0.0 -10.2 -0.3 98 0.1 WNW 43 70 23 38 - - 10.0
01/11:00pm -0.2 -9.7 -0.5 98 0.1 WNW 39 57 21 31 - - 10.0
01/10:48pm -0.2 -10.6 -0.3 99 0.0 WNW 44 76 24 41 - - 10.0
01/10:34pm -0.3 -8.4 -0.6 98 0.1 WNW 32 52 17 28 - - 10.0
01/10:30pm -0.4 -8.2 -0.7 98 0.1 WNW 30 44 16 24 - - 10.0
01/10:06pm -0.4 -7.8 -0.5 99 0.0 NW 28 48 15 26 - - 10.0
01/10:00pm -0.4 -7.0 -0.7 98 0.1 NW 24 48 13 26 - - 10.0
01/09:32pm -0.4 -8.6 -0.7 98 0.1 WNW 32 61 17 33 - - 10.0
01/09:30pm -0.4 -8.6 -0.7 98 0.1 WNW 32 46 17 25 - - 10.0
01/09:00pm -0.4 -9.1 -0.7 98 0.1 WNW 35 57 19 31 - - 10.0
01/08:33pm -0.5 -8.7 -0.8 98 0.1 WNW 32 50 17 27 - - 10.0
01/08:30pm -0.5 -8.7 -0.8 98 0.1 WNW 32 48 17 26 - - 10.0
01/08:02pm -0.6 -8.0 -0.7 99 0.0 W 28 54 15 29 - - 10.0
01/08:00pm -0.6 -7.2 -0.7 99 0.0 W 24 54 13 29 - - 10.0
01/07:30pm -0.7 -8.1 -0.8 99 0.0 WNW 28 41 15 22 - - 10.0
01/07:00pm -0.7 -8.5 -0.7 100 0.0 WNW 30 43 16 23 - - 10.0
01/06:30pm -0.6 -8.7 -0.6 100 0.0 W 32 50 17 27 - - 10.0
01/06:00pm -0.6 -11.0 -0.6 100 0.0 WNW 44 74 24 40 - - 10.0
01/05:30pm -0.5 -10.7 -0.6 99 0.0 WNW 43 70 23 38 - - 10.0
01/05:09pm -0.5 -10.4 -0.9 97 0.1 WNW 41 72 22 39 - - 10.0
01/05:00pm -0.4 -9.1 -0.7 98 0.1 WNW 35 54 19 29 - - 10.0
01/04:30pm -0.3 -9.8 -0.6 98 0.1 WNW 39 57 21 31 - - 10.0
01/04:00pm 0.0 -9.5 -0.6 96 0.2 WNW 39 65 21 35 - - 10.0
01/03:33pm 0.0 -8.7 -0.6 96 0.2 WNW 35 54 19 29 - - 10.0
01/03:30pm 0.1 -9.0 -0.5 96 0.2 WNW 37 54 20 29 - - 10.0
01/03:02pm -0.3 -9.4 -0.6 98 0.1 W 37 56 20 30 - - 9.4
01/03:00pm -0.3 -9.4 -0.7 97 0.1 W 37 54 20 29 - - 9.4
01/02:30pm -0.2 -8.0 -0.5 98 0.1 W 30 52 16 28 - - 8.8
01/02:00pm -0.1 -9.6 -0.7 96 0.2 WNW 39 61 21 33 - - 8.6
01/01:30pm -0.3 -9.0 -0.6 98 0.1 WNW 35 65 19 35 - - 7.8
01/01:00pm -0.1 -8.8 -0.5 97 0.1 WNW 35 67 19 36 - - 7.2
01/12:30pm -0.1 -8.2 -0.5 97 0.1 WNW 32 52 17 28 - - 6.0
01/12:00pm -0.1 -7.5 -0.5 97 0.1 WNW 28 50 15 27 - - 4.6
01/11:30am 0.3 -7.0 0.0 98 0.1 W 28 50 15 27 - - 2.6
01/11:00am -0.2 -8.5 -0.5 98 0.1 WNW 33 57 18 31 - - 1.8
01/10:30am -0.7 -8.9 -1.0 98 0.1 WNW 32 56 17 30 - - 0.8
01/10:15am -0.7 -8.2 -1.1 97 0.1 WNW 28 72 15 39 - - 0.2
01/10:08am -0.8 -8.3 -1.1 98 0.1 W 28 54 15 29 - - 0.0
01/10:00am -1.2 -7.6 -1.5 98 0.1 WSW 22 48 12 26 - - 0.0
01/09:31am -0.8 -8.2 -0.8 100 0.0 W 28 57 15 31 - - 0.0
01/09:30am -0.9 -8.3 -0.9 100 0.0 WNW 28 57 15 31 - - 0.0
01/09:02am -1.2 -7.5 -1.2 100 0.0 W 22 48 12 26 - - 0.0
01/09:00am -1.2 -7.0 -1.2 100 0.0 W 19 41 10 22 - - 5.0
01/08:30am -1.1 -9.9 -1.1 100 0.0 WNW 35 56 19 30 - - 5.0
01/08:19am -1.2 -8.7 -1.2 100 0.0 WNW 28 54 15 29 - - 5.0
01/08:00am -1.3 -8.8 -1.3 100 0.0 W 28 44 15 24 - - 5.0
01/07:36am -1.1 -6.8 -1.1 100 0.0 WNW 19 46 10 25 - - 5.0
01/07:30am -1.2 -6.6 -1.2 100 0.0 WNW 17 39 9 21 - - 5.0
01/07:01am -0.7 -8.1 -0.7 100 0.0 W 28 63 15 34 - - 4.8
01/07:00am -0.7 -7.3 -0.7 100 0.0 W 24 59 13 32 - - 4.8
01/06:33am -0.6 -8.9 -0.6 100 0.0 WSW 33 56 18 30 - - 4.8
01/06:30am -0.6 -8.7 -0.6 100 0.0 WSW 32 48 17 26 - - 4.8
01/06:19am -0.4 -7.8 -0.4 100 0.0 WSW 28 56 15 30 - - 4.8
01/06:00am -0.2 -6.0 -0.2 100 0.0 WNW 20 32 11 17 - - 4.8
01/05:30am -0.1 -7.4 -0.1 100 0.0 WNW 28 39 15 21 - - 4.8
01/05:00am -0.1 -7.8 -0.1 100 0.0 NW 30 43 16 23 - - 4.8
01/04:30am 0.3 -8.7 0.2 99 0.0 NW 37 59 20 32 - - 4.8
01/04:01am 1.0 -7.9 0.9 99 0.0 NW 37 56 20 30 - - 4.0
01/04:00am 1.1 -8.1 1.0 99 0.0 NW 39 56 21 30 - - 4.0
01/03:30am 1.3 -9.2 1.2 99 0.0 NW 46 72 25 39 - - 3.4
01/03:29am 1.3 -8.9 1.2 99 0.0 NW 44 72 24 39 - - 3.4
01/03:00am 1.4 -6.5 1.1 98 0.1 NNW 32 52 17 28 - - 3.0
01/02:42am 1.6 -6.9 1.2 97 0.2 NNW 35 54 19 29 - - 2.2
01/02:30am 1.7 -6.4 1.3 97 0.2 NW 33 48 18 26 - - 2.0
01/02:02am 2.0 -8.0 1.1 94 0.4 NNW 43 65 23 35 - - 1.8
01/02:00am 2.0 -8.0 1.1 94 0.4 NNW 43 59 23 32 - - 1.8
01/01:30am 2.1 -8.8 1.1 93 0.4 NW 48 67 26 36 - - 1.8
01/01:14am 2.3 -9.4 1.1 92 0.5 NW 52 85 28 46 - - 1.8
01/01:00am 2.2 -8.3 1.2 93 0.4 NW 46 67 25 36 - - 1.8
01/12:30am 1.9 -6.2 1.3 96 0.2 NNW 33 52 18 28 - - 1.8
01/12:00am 1.7 -6.2 1.3 97 0.2 NNW 32 52 17 28 - - 1.8
 
Date/Time
EST
Temp
°C
App
Temp
°C
Dew
Point
Rel
Hum
%
Delta-T
°C
Wind Press
QNH
hPa
Press
MSL
hPa
Rain
since 9 am
mm
Dir
 
Spd
km/h
Gust
km/h
Spd
kts
Gust
kts
31/11:30pm 1.7 -5.4 1.3 97 0.2 NNW 28 48 15 26 - - 1.8

Other Formats:

Comma delimited format used in spreadsheet applications
http://www.bom.gov.au/fwo/IDT60801/IDT60801.94977.axf

JavaScript Object Notation format (JSON) in row-major order
http://www.bom.gov.au/fwo/IDT60801/IDT60801.94977.json